createdAt,value
2023-04-29T00:00:01.165Z,950.9
2023-04-29T00:01:03.011Z,950.9
2023-04-29T00:02:05.073Z,950.9
2023-04-29T00:03:07.852Z,950.9
2023-04-29T00:04:10.656Z,950.9
2023-04-29T00:05:13.845Z,950.9
2023-04-29T00:06:16.892Z,950.8
2023-04-29T00:07:19.037Z,950.9
2023-04-29T00:08:20.846Z,950.8
2023-04-29T00:09:22.630Z,950.8
2023-04-29T00:10:24.473Z,950.8
2023-04-29T00:11:26.322Z,950.8
2023-04-29T00:12:28.166Z,950.8
2023-04-29T00:13:29.950Z,950.8
2023-04-29T00:14:31.873Z,950.8
2023-04-29T00:15:33.726Z,950.9
2023-04-29T00:16:35.779Z,950.9
2023-04-29T00:17:37.971Z,950.9
2023-04-29T00:18:39.887Z,950.9
2023-04-29T00:19:41.836Z,950.9
2023-04-29T00:20:43.893Z,950.9
2023-04-29T00:21:45.738Z,950.9
2023-04-29T00:22:47.538Z,950.9
2023-04-29T00:23:49.246Z,950.9
2023-04-29T00:24:51.083Z,950.9
2023-04-29T00:25:52.933Z,951
2023-04-29T00:26:54.791Z,950.9
2023-04-29T00:27:56.731Z,950.9
2023-04-29T00:28:58.515Z,951
2023-04-29T00:30:00.445Z,951
2023-04-29T00:31:02.331Z,951
2023-04-29T00:32:04.549Z,951
2023-04-29T00:33:06.618Z,950.9
2023-04-29T00:34:08.667Z,951
2023-04-29T00:35:10.618Z,951
2023-04-29T00:36:12.430Z,951
2023-04-29T00:37:14.190Z,951
2023-04-29T00:38:15.961Z,951
2023-04-29T00:39:17.892Z,951
2023-04-29T00:40:19.865Z,951
2023-04-29T00:41:21.719Z,951
2023-04-29T00:42:23.553Z,951
2023-04-29T00:43:25.269Z,951
2023-04-29T00:44:27.273Z,951
2023-04-29T00:45:29.106Z,951
2023-04-29T00:46:33.761Z,951
2023-04-29T00:47:35.892Z,951
2023-04-29T00:48:37.729Z,951
2023-04-29T00:49:39.582Z,951
2023-04-29T00:50:41.529Z,951
2023-04-29T00:51:45.845Z,950.9
2023-04-29T00:52:47.686Z,950.9
2023-04-29T00:53:50.158Z,950.9
2023-04-29T00:54:51.898Z,950.9
2023-04-29T00:55:53.756Z,950.9
2023-04-29T00:56:55.599Z,950.9
2023-04-29T00:57:57.459Z,950.9
2023-04-29T00:58:59.313Z,950.8
2023-04-29T01:00:01.227Z,950.8
2023-04-29T01:01:03.324Z,950.8
2023-04-29T01:02:05.084Z,950.7
2023-04-29T01:03:07.407Z,950.7
2023-04-29T01:04:10.001Z,950.7
2023-04-29T01:05:12.569Z,950.7
2023-04-29T01:06:14.506Z,950.6
2023-04-29T01:07:16.267Z,950.6
2023-04-29T01:08:19.030Z,950.6
2023-04-29T01:09:20.876Z,950.6
2023-04-29T01:10:22.837Z,950.5
2023-04-29T01:11:24.676Z,950.6
2023-04-29T01:12:26.547Z,950.6
2023-04-29T01:13:28.299Z,950.6
2023-04-29T01:14:30.235Z,950.6
2023-04-29T01:15:32.106Z,950.6
2023-04-29T01:16:34.211Z,950.6
2023-04-29T01:17:36.329Z,950.6
2023-04-29T01:18:38.238Z,950.6
2023-04-29T01:19:40.148Z,950.6
2023-04-29T01:20:42.068Z,950.6
2023-04-29T01:21:44.005Z,950.6
2023-04-29T01:22:45.865Z,950.6
2023-04-29T01:23:47.718Z,950.6
2023-04-29T01:24:49.556Z,950.6
2023-04-29T01:25:51.408Z,950.6
2023-04-29T01:26:53.353Z,950.5
2023-04-29T01:27:55.097Z,950.5
2023-04-29T01:28:56.954Z,950.6
2023-04-29T01:29:58.879Z,950.5
2023-04-29T01:31:00.788Z,950.5
2023-04-29T01:32:02.817Z,950.5
2023-04-29T01:33:04.899Z,950.5
2023-04-29T01:34:06.787Z,950.5
2023-04-29T01:35:08.581Z,950.5
2023-04-29T01:36:10.305Z,950.5
2023-04-29T01:37:12.258Z,950.5
2023-04-29T01:38:14.102Z,950.5
2023-04-29T01:39:15.960Z,950.5
2023-04-29T01:40:17.784Z,950.5
2023-04-29T01:41:19.554Z,950.5
2023-04-29T01:42:21.308Z,950.5
2023-04-29T01:43:23.159Z,950.5
2023-04-29T01:44:25.002Z,950.5
2023-04-29T01:45:26.831Z,950.5
2023-04-29T01:46:28.894Z,950.5
2023-04-29T01:47:30.883Z,950.5
2023-04-29T01:48:32.682Z,950.5
2023-04-29T01:49:34.660Z,950.5
2023-04-29T01:50:36.525Z,950.5
2023-04-29T01:51:38.287Z,950.5
2023-04-29T01:52:40.228Z,950.5
2023-04-29T01:53:41.965Z,950.5
2023-04-29T01:54:43.732Z,950.5
2023-04-29T01:55:45.570Z,950.5
2023-04-29T01:56:47.399Z,950.5
2023-04-29T01:57:49.276Z,950.5
2023-04-29T01:58:51.217Z,950.5
2023-04-29T01:59:53.729Z,950.4
2023-04-29T02:00:56.284Z,950.4
2023-04-29T02:01:58.213Z,950.4
2023-04-29T02:03:00.477Z,950.4
2023-04-29T02:04:03.372Z,950.4
2023-04-29T02:05:05.491Z,950.5
2023-04-29T02:06:07.389Z,950.5
2023-04-29T02:07:09.313Z,950.5
2023-04-29T02:08:11.349Z,950.5
2023-04-29T02:09:13.520Z,950.5
2023-04-29T02:10:15.462Z,950.5
2023-04-29T02:11:17.305Z,950.5
2023-04-29T02:12:21.924Z,950.5
2023-04-29T02:13:23.776Z,950.5
2023-04-29T02:14:25.725Z,950.5
2023-04-29T02:15:27.679Z,950.5
2023-04-29T02:16:29.844Z,950.5
2023-04-29T02:17:31.929Z,950.6
2023-04-29T02:18:33.738Z,950.6
2023-04-29T02:19:35.693Z,950.5
2023-04-29T02:20:37.538Z,950.5
2023-04-29T02:21:39.387Z,950.6
2023-04-29T02:22:41.231Z,950.5
2023-04-29T02:23:43.086Z,950.6
2023-04-29T02:24:45.040Z,950.6
2023-04-29T02:25:46.889Z,950.6
2023-04-29T02:26:48.861Z,950.6
2023-04-29T02:27:53.230Z,950.6
2023-04-29T02:28:55.013Z,950.6
2023-04-29T02:29:56.858Z,950.6
2023-04-29T02:30:58.680Z,950.6
2023-04-29T02:32:00.686Z,950.5
2023-04-29T02:33:02.910Z,950.5
2023-04-29T02:34:04.763Z,950.6
2023-04-29T02:35:06.513Z,950.6
2023-04-29T02:36:08.364Z,950.6
2023-04-29T02:37:10.201Z,950.6
2023-04-29T02:38:12.374Z,950.6
2023-04-29T02:39:14.215Z,950.6
2023-04-29T02:40:18.743Z,950.6
2023-04-29T02:41:20.496Z,950.6
2023-04-29T02:42:22.339Z,950.6
2023-04-29T02:43:24.084Z,950.5
2023-04-29T02:44:25.750Z,950.5
2023-04-29T02:45:27.484Z,950.5
2023-04-29T02:46:29.753Z,950.6
2023-04-29T02:47:31.801Z,950.5
2023-04-29T02:48:33.582Z,950.5
2023-04-29T02:49:35.206Z,950.5
2023-04-29T02:50:37.035Z,950.5
2023-04-29T02:51:38.864Z,950.5
2023-04-29T02:52:40.728Z,950.5
2023-04-29T02:53:42.574Z,950.6
2023-04-29T02:54:44.431Z,950.6
2023-04-29T02:55:46.282Z,950.6
2023-04-29T02:56:48.131Z,950.6
2023-04-29T02:57:49.984Z,950.6
2023-04-29T02:58:51.907Z,950.6
2023-04-29T02:59:54.593Z,950.6
2023-04-29T03:00:56.590Z,950.6
2023-04-29T03:02:01.110Z,950.7
2023-04-29T03:03:03.492Z,950.7
2023-04-29T03:04:06.282Z,950.8
2023-04-29T03:05:08.172Z,950.8
2023-04-29T03:06:10.048Z,950.8
2023-04-29T03:07:11.839Z,950.9
2023-04-29T03:08:13.705Z,950.9
2023-04-29T03:09:15.647Z,950.9
2023-04-29T03:10:17.612Z,950.9
2023-04-29T03:11:19.535Z,950.9
2023-04-29T03:12:21.424Z,950.9
2023-04-29T03:13:23.254Z,950.9
2023-04-29T03:14:25.185Z,950.9
2023-04-29T03:15:27.060Z,950.8
2023-04-29T03:16:29.077Z,950.9
2023-04-29T03:17:31.316Z,950.8
2023-04-29T03:18:33.123Z,950.8
2023-04-29T03:19:35.104Z,950.8
2023-04-29T03:20:36.902Z,950.8
2023-04-29T03:21:38.776Z,950.8
2023-04-29T03:22:40.734Z,950.8
2023-04-29T03:23:42.590Z,950.8
2023-04-29T03:24:44.628Z,950.8
2023-04-29T03:25:46.659Z,950.8
2023-04-29T03:26:48.638Z,950.8
2023-04-29T03:27:50.493Z,950.9
2023-04-29T03:28:52.258Z,950.9
2023-04-29T03:29:55.001Z,950.8
2023-04-29T03:30:57.276Z,950.8
2023-04-29T03:31:59.258Z,950.9
2023-04-29T03:33:01.492Z,950.9
2023-04-29T03:34:03.430Z,950.9
2023-04-29T03:35:05.297Z,950.9
2023-04-29T03:36:09.928Z,951
2023-04-29T03:37:11.749Z,951
2023-04-29T03:38:13.493Z,951
2023-04-29T03:39:15.342Z,951.1
2023-04-29T03:40:17.292Z,951.1
2023-04-29T03:41:19.138Z,951.1
2023-04-29T03:42:20.997Z,951.2
2023-04-29T03:43:22.865Z,951.1
2023-04-29T03:44:24.712Z,951.2
2023-04-29T03:45:26.660Z,951.2
2023-04-29T03:46:28.615Z,951.2
2023-04-29T03:47:30.997Z,951.2
2023-04-29T03:48:33.115Z,951.2
2023-04-29T03:49:34.923Z,951.2
2023-04-29T03:50:36.738Z,951.3
2023-04-29T03:51:38.567Z,951.2
2023-04-29T03:52:40.531Z,951.2
2023-04-29T03:53:42.382Z,951.2
2023-04-29T03:54:44.225Z,951.2
2023-04-29T03:55:46.169Z,951.1
2023-04-29T03:56:48.009Z,951.1
2023-04-29T03:57:49.771Z,951.1
2023-04-29T03:58:51.713Z,951.1
2023-04-29T03:59:54.437Z,951.1
2023-04-29T04:00:56.657Z,951.1
2023-04-29T04:01:58.705Z,951.1
2023-04-29T04:03:06.171Z,951.1
2023-04-29T04:04:08.877Z,951.1
2023-04-29T04:05:11.662Z,951.1
2023-04-29T04:06:13.738Z,951
2023-04-29T04:07:15.639Z,951
2023-04-29T04:08:17.490Z,951
2023-04-29T04:09:19.432Z,951
2023-04-29T04:10:21.175Z,951
2023-04-29T04:11:22.934Z,951
2023-04-29T04:12:24.775Z,951
2023-04-29T04:13:26.633Z,951
2023-04-29T04:14:28.583Z,951
2023-04-29T04:15:30.429Z,951
2023-04-29T04:16:32.436Z,951.1
2023-04-29T04:17:34.647Z,951.1
2023-04-29T04:18:36.407Z,951.1
2023-04-29T04:19:38.245Z,951.1
2023-04-29T04:20:40.090Z,951.2
2023-04-29T04:21:41.980Z,951.1
2023-04-29T04:22:43.791Z,951.2
2023-04-29T04:23:45.644Z,951.2
2023-04-29T04:24:47.482Z,951.1
2023-04-29T04:25:49.455Z,951.1
2023-04-29T04:26:51.306Z,951.1
2023-04-29T04:27:53.238Z,951.1
2023-04-29T04:28:55.102Z,951.1
2023-04-29T04:29:56.832Z,951.1
2023-04-29T04:30:58.799Z,951.2
2023-04-29T04:32:00.861Z,951.1
2023-04-29T04:33:02.861Z,951.1
2023-04-29T04:34:04.767Z,951.1
2023-04-29T04:35:06.606Z,951.1
2023-04-29T04:36:08.481Z,951.1
2023-04-29T04:37:10.328Z,951
2023-04-29T04:38:12.262Z,951
2023-04-29T04:39:14.005Z,951
2023-04-29T04:40:15.860Z,951
2023-04-29T04:41:17.615Z,951
2023-04-29T04:42:19.460Z,951
2023-04-29T04:43:21.313Z,950.9
2023-04-29T04:44:23.149Z,951
2023-04-29T04:45:25.209Z,951
2023-04-29T04:46:27.085Z,951
2023-04-29T04:47:29.074Z,951
2023-04-29T04:48:30.961Z,951
2023-04-29T04:49:32.847Z,951
2023-04-29T04:50:34.781Z,951
2023-04-29T04:51:39.495Z,951.1
2023-04-29T04:52:41.271Z,951.1
2023-04-29T04:53:43.092Z,951.1
2023-04-29T04:54:47.850Z,951.1
2023-04-29T04:55:49.656Z,951.1
2023-04-29T04:56:51.502Z,951.1
2023-04-29T04:57:53.326Z,951.2
2023-04-29T04:58:55.193Z,951.1
2023-04-29T04:59:57.058Z,951.2
2023-04-29T05:00:59.310Z,951.2
2023-04-29T05:02:01.373Z,951.2
2023-04-29T05:03:03.584Z,951.1
2023-04-29T05:04:06.140Z,951.1
2023-04-29T05:05:08.255Z,951.1
2023-04-29T05:06:10.142Z,951.1
2023-04-29T05:07:11.831Z,951.1
2023-04-29T05:08:13.729Z,951.1
2023-04-29T05:09:15.650Z,951.1
2023-04-29T05:10:17.491Z,951.1
2023-04-29T05:11:19.347Z,951
2023-04-29T05:12:21.207Z,951
2023-04-29T05:13:23.043Z,951
2023-04-29T05:14:24.899Z,951
2023-04-29T05:15:26.754Z,951
2023-04-29T05:16:28.723Z,950.9
2023-04-29T05:17:30.714Z,950.9
2023-04-29T05:18:32.597Z,950.9
2023-04-29T05:19:34.347Z,950.9
2023-04-29T05:20:36.303Z,950.8
2023-04-29T05:21:38.055Z,950.8
2023-04-29T05:22:40.015Z,950.8
2023-04-29T05:23:41.886Z,950.8
2023-04-29T05:24:43.815Z,950.8
2023-04-29T05:25:45.647Z,950.7
2023-04-29T05:26:47.605Z,950.8
2023-04-29T05:27:49.446Z,950.8
2023-04-29T05:28:51.195Z,950.8
2023-04-29T05:29:54.024Z,950.8
2023-04-29T05:30:56.490Z,950.8
2023-04-29T05:31:58.401Z,950.8
2023-04-29T05:33:00.551Z,950.7
2023-04-29T05:34:02.513Z,950.7
2023-04-29T05:35:07.935Z,950.7
2023-04-29T05:36:09.884Z,950.6
2023-04-29T05:37:11.741Z,950.6
2023-04-29T05:38:13.667Z,950.6
2023-04-29T05:39:15.569Z,950.6
2023-04-29T05:40:17.396Z,950.6
2023-04-29T05:41:19.235Z,950.6
2023-04-29T05:42:21.003Z,950.6
2023-04-29T05:43:22.863Z,950.7
2023-04-29T05:44:24.590Z,950.7
2023-04-29T05:45:26.536Z,950.7
2023-04-29T05:46:28.600Z,950.7
2023-04-29T05:47:30.768Z,950.7
2023-04-29T05:48:32.810Z,950.6
2023-04-29T05:49:34.658Z,950.6
2023-04-29T05:50:36.498Z,950.6
2023-04-29T05:51:38.354Z,950.6
2023-04-29T05:52:40.211Z,950.6
2023-04-29T05:53:42.150Z,950.6
2023-04-29T05:54:44.062Z,950.6
2023-04-29T05:55:46.062Z,950.5
2023-04-29T05:56:47.911Z,950.6
2023-04-29T05:57:49.900Z,950.6
2023-04-29T05:58:51.932Z,950.6
2023-04-29T05:59:54.373Z,950.6
2023-04-29T06:01:00.212Z,950.7
2023-04-29T06:02:02.066Z,950.7
2023-04-29T06:03:04.449Z,950.7
2023-04-29T06:04:07.197Z,950.7
2023-04-29T06:05:10.445Z,950.8
2023-04-29T06:06:13.166Z,950.7
2023-04-29T06:07:15.115Z,950.7
2023-04-29T06:08:16.961Z,950.7
2023-04-29T06:09:28.750Z,950.7
2023-04-29T06:10:30.535Z,950.7
2023-04-29T06:11:32.348Z,950.7
2023-04-29T06:12:34.208Z,950.8
2023-04-29T06:13:36.151Z,950.8
2023-04-29T06:14:37.995Z,950.7
2023-04-29T06:15:39.855Z,950.7
2023-04-29T06:16:41.950Z,950.7
2023-04-29T06:17:44.193Z,950.7
2023-04-29T06:18:46.108Z,950.6
2023-04-29T06:19:47.968Z,950.6
2023-04-29T06:20:49.708Z,950.6
2023-04-29T06:21:51.574Z,950.6
2023-04-29T06:22:53.342Z,950.6
2023-04-29T06:23:55.065Z,950.6
2023-04-29T06:24:57.004Z,950.6
2023-04-29T06:25:58.990Z,950.6
2023-04-29T06:27:00.808Z,950.6
2023-04-29T06:28:02.663Z,950.7
2023-04-29T06:29:04.516Z,950.7
2023-04-29T06:30:06.375Z,950.7
2023-04-29T06:31:08.361Z,950.7
2023-04-29T06:32:10.422Z,950.7
2023-04-29T06:33:12.591Z,950.7
2023-04-29T06:34:14.573Z,950.7
2023-04-29T06:35:16.334Z,950.7
2023-04-29T06:36:18.289Z,950.7
2023-04-29T06:37:20.161Z,950.7
2023-04-29T06:38:22.091Z,950.7
2023-04-29T06:39:23.930Z,950.7
2023-04-29T06:40:25.778Z,950.7
2023-04-29T06:41:27.753Z,950.7
2023-04-29T06:42:29.593Z,950.7
2023-04-29T06:43:31.447Z,950.7
2023-04-29T06:44:33.277Z,950.7
2023-04-29T06:45:35.135Z,950.7
2023-04-29T06:46:37.371Z,950.7
2023-04-29T06:47:39.609Z,950.7
2023-04-29T06:48:41.491Z,950.7
2023-04-29T06:49:43.357Z,950.6
2023-04-29T06:50:45.108Z,950.7
2023-04-29T06:51:47.053Z,950.7
2023-04-29T06:52:48.828Z,950.7
2023-04-29T06:53:50.651Z,950.7
2023-04-29T06:54:52.420Z,950.7
2023-04-29T06:55:54.229Z,950.6
2023-04-29T06:56:56.233Z,950.6
2023-04-29T06:57:58.048Z,950.6
2023-04-29T06:58:59.910Z,950.6
2023-04-29T07:00:01.856Z,950.6
2023-04-29T07:01:03.983Z,950.7
2023-04-29T07:02:06.065Z,950.6
2023-04-29T07:03:08.279Z,950.6
2023-04-29T07:04:10.648Z,950.6
2023-04-29T07:05:12.645Z,950.6
2023-04-29T07:06:14.488Z,950.6
2023-04-29T07:07:16.451Z,950.6
2023-04-29T07:08:18.291Z,950.6
2023-04-29T07:09:20.046Z,950.6
2023-04-29T07:10:21.898Z,950.6
2023-04-29T07:11:23.827Z,950.6
2023-04-29T07:12:25.719Z,950.6
2023-04-29T07:13:27.550Z,950.6
2023-04-29T07:14:29.304Z,950.6
2023-04-29T07:15:34.119Z,950.6
2023-04-29T07:16:36.227Z,950.6
2023-04-29T07:17:38.237Z,950.5
2023-04-29T07:18:40.157Z,950.6
2023-04-29T07:19:42.018Z,950.5
2023-04-29T07:20:43.874Z,950.5
2023-04-29T07:21:45.720Z,950.5
2023-04-29T07:22:47.579Z,950.5
2023-04-29T07:23:49.423Z,950.4
2023-04-29T07:24:51.781Z,950.5
2023-04-29T07:25:53.938Z,950.5
2023-04-29T07:26:55.797Z,950.5
2023-04-29T07:27:57.835Z,950.5
2023-04-29T07:28:59.613Z,950.5
2023-04-29T07:30:01.465Z,950.5
2023-04-29T07:31:03.738Z,950.5
2023-04-29T07:32:05.563Z,950.5
2023-04-29T07:33:07.635Z,950.5
2023-04-29T07:34:09.563Z,950.5
2023-04-29T07:35:11.312Z,950.5
2023-04-29T07:36:13.163Z,950.5
2023-04-29T07:37:15.224Z,950.5
2023-04-29T07:38:17.057Z,950.4
2023-04-29T07:39:18.911Z,950.5
2023-04-29T07:40:20.761Z,950.5
2023-04-29T07:41:22.610Z,950.5
2023-04-29T07:42:24.569Z,950.5
2023-04-29T07:43:26.441Z,950.5
2023-04-29T07:44:28.271Z,950.5
2023-04-29T07:45:30.102Z,950.5
2023-04-29T07:46:32.189Z,950.5
2023-04-29T07:47:34.058Z,950.5
2023-04-29T07:48:35.974Z,950.5
2023-04-29T07:49:37.928Z,950.5
2023-04-29T07:50:39.767Z,950.5
2023-04-29T07:51:41.627Z,950.4
2023-04-29T07:52:43.377Z,950.4
2023-04-29T07:53:45.233Z,950.4
2023-04-29T07:54:47.071Z,950.4
2023-04-29T07:55:48.811Z,950.4
2023-04-29T07:56:50.668Z,950.4
2023-04-29T07:57:52.516Z,950.4
2023-04-29T07:58:54.185Z,950.4
2023-04-29T07:59:56.130Z,950.4
2023-04-29T08:00:57.967Z,950.4
2023-04-29T08:01:59.938Z,950.3
2023-04-29T08:03:02.209Z,950.3
2023-04-29T08:04:04.932Z,950.3
2023-04-29T08:05:08.708Z,950.3
2023-04-29T08:06:11.383Z,950.3
2023-04-29T08:07:13.628Z,950.3
2023-04-29T08:08:15.518Z,950.4
2023-04-29T08:09:17.385Z,950.3
2023-04-29T08:10:19.125Z,950.4
2023-04-29T08:11:21.076Z,950.3
2023-04-29T08:12:22.903Z,950.3
2023-04-29T08:13:24.767Z,950.4
2023-04-29T08:14:26.779Z,950.3
2023-04-29T08:15:28.684Z,950.3
2023-04-29T08:16:31.280Z,950.3
2023-04-29T08:17:33.304Z,950.3
2023-04-29T08:18:35.153Z,950.3
2023-04-29T08:19:37.103Z,950.3
2023-04-29T08:20:38.955Z,950.2
2023-04-29T08:21:40.917Z,950.2
2023-04-29T08:22:42.754Z,950.2
2023-04-29T08:23:44.611Z,950.2
2023-04-29T08:24:46.472Z,950.2
2023-04-29T08:25:48.307Z,950.2
2023-04-29T08:26:50.128Z,950.2
2023-04-29T08:27:52.007Z,950.2
2023-04-29T08:28:53.831Z,950.2
2023-04-29T08:29:55.832Z,950.1
2023-04-29T08:30:57.660Z,950.1
2023-04-29T08:31:59.828Z,950.1
2023-04-29T08:33:02.136Z,950.1
2023-04-29T08:34:04.134Z,950.1
2023-04-29T08:35:05.985Z,950.1
2023-04-29T08:36:07.832Z,950.1
2023-04-29T08:37:09.893Z,950.1
2023-04-29T08:38:11.742Z,950.1
2023-04-29T08:39:13.591Z,950.1
2023-04-29T08:40:15.544Z,950.1
2023-04-29T08:41:17.408Z,950.1
2023-04-29T08:42:19.239Z,950.1
2023-04-29T08:43:21.406Z,950.1
2023-04-29T08:44:23.238Z,950.1
2023-04-29T08:45:25.404Z,950.1
2023-04-29T08:46:27.245Z,950.1
2023-04-29T08:47:29.235Z,950.1
2023-04-29T08:48:31.625Z,950
2023-04-29T08:49:33.649Z,950
2023-04-29T08:50:35.674Z,950
2023-04-29T08:51:37.524Z,950.1
2023-04-29T08:52:39.383Z,950
2023-04-29T08:53:41.327Z,950
2023-04-29T08:54:43.088Z,950
2023-04-29T08:55:45.028Z,950
2023-04-29T08:56:46.887Z,950
2023-04-29T08:57:48.734Z,950
2023-04-29T08:58:50.471Z,950
2023-04-29T08:59:52.482Z,949.9
2023-04-29T09:00:54.517Z,949.9
2023-04-29T09:01:56.439Z,949.9
2023-04-29T09:02:58.594Z,950
2023-04-29T09:04:01.196Z,949.9
2023-04-29T09:05:03.886Z,949.9
2023-04-29T09:06:06.079Z,949.9
2023-04-29T09:07:08.068Z,949.8
2023-04-29T09:08:10.259Z,949.8
2023-04-29T09:09:12.045Z,949.8
2023-04-29T09:10:13.715Z,949.8
2023-04-29T09:11:15.425Z,949.8
2023-04-29T09:12:17.297Z,949.8
2023-04-29T09:13:19.237Z,949.8
2023-04-29T09:14:21.107Z,949.7
2023-04-29T09:15:22.870Z,949.8
2023-04-29T09:16:24.851Z,949.7
2023-04-29T09:17:26.859Z,949.7
2023-04-29T09:18:29.090Z,949.7
2023-04-29T09:19:30.957Z,949.7
2023-04-29T09:20:32.805Z,949.7
2023-04-29T09:21:34.558Z,949.7
2023-04-29T09:22:36.426Z,949.7
2023-04-29T09:23:38.253Z,949.7
2023-04-29T09:24:40.062Z,949.7
2023-04-29T09:25:41.847Z,949.7
2023-04-29T09:26:44.161Z,949.6
2023-04-29T09:27:45.967Z,949.6
2023-04-29T09:28:48.002Z,949.6
2023-04-29T09:29:49.660Z,949.6
2023-04-29T09:30:51.593Z,949.6
2023-04-29T09:31:53.848Z,949.6
2023-04-29T09:32:55.929Z,949.6
2023-04-29T09:33:57.992Z,949.6
2023-04-29T09:34:59.832Z,949.6
2023-04-29T09:36:01.694Z,949.5
2023-04-29T09:37:03.633Z,949.6
2023-04-29T09:38:05.456Z,949.5
2023-04-29T09:39:07.444Z,949.5
2023-04-29T09:40:09.284Z,949.5
2023-04-29T09:41:11.248Z,949.5
2023-04-29T09:42:13.203Z,949.5
2023-04-29T09:43:15.258Z,949.5
2023-04-29T09:44:17.095Z,949.5
2023-04-29T09:45:18.851Z,949.5
2023-04-29T09:46:20.602Z,949.5
2023-04-29T09:47:22.882Z,949.5
2023-04-29T09:48:24.794Z,949.4
2023-04-29T09:49:26.774Z,949.4
2023-04-29T09:50:28.610Z,949.5
2023-04-29T09:51:30.354Z,949.4
2023-04-29T09:52:32.313Z,949.4
2023-04-29T09:53:34.268Z,949.4
2023-04-29T09:54:36.108Z,949.4
2023-04-29T09:55:40.722Z,949.4
2023-04-29T09:56:42.572Z,949.4
2023-04-29T09:57:45.633Z,949.4
2023-04-29T09:58:47.504Z,949.4
2023-04-29T09:59:49.348Z,949.3
2023-04-29T10:00:51.218Z,949.3
2023-04-29T10:01:53.404Z,949.3
2023-04-29T10:02:56.003Z,949.3
2023-04-29T10:03:58.218Z,949.2
2023-04-29T10:05:00.479Z,949.2
2023-04-29T10:06:02.391Z,949.2
2023-04-29T10:07:04.156Z,949.2
2023-04-29T10:08:06.199Z,949.1
2023-04-29T10:09:08.146Z,949.2
2023-04-29T10:10:09.904Z,949.2
2023-04-29T10:11:11.675Z,949.2
2023-04-29T10:12:13.491Z,949.2
2023-04-29T10:13:15.339Z,949.2
2023-04-29T10:14:17.300Z,949.1
2023-04-29T10:15:19.273Z,949.1
2023-04-29T10:16:21.136Z,949.1
2023-04-29T10:17:23.064Z,949.2
2023-04-29T10:18:25.048Z,949.1
2023-04-29T10:19:26.969Z,949.1
2023-04-29T10:20:28.819Z,949.1
2023-04-29T10:21:30.780Z,949.1
2023-04-29T10:22:32.615Z,949.1
2023-04-29T10:23:34.464Z,949.1
2023-04-29T10:24:36.423Z,949
2023-04-29T10:25:38.256Z,949
2023-04-29T10:26:40.106Z,949
2023-04-29T10:27:41.841Z,949
2023-04-29T10:28:43.814Z,949
2023-04-29T10:29:45.870Z,949
2023-04-29T10:30:47.606Z,948.9
2023-04-29T10:31:49.719Z,948.9
2023-04-29T10:32:53.400Z,948.9
2023-04-29T10:33:55.346Z,948.9
2023-04-29T10:34:57.096Z,948.8
2023-04-29T10:35:58.935Z,948.9
2023-04-29T10:37:00.869Z,948.9
2023-04-29T10:38:02.709Z,948.9
2023-04-29T10:39:04.680Z,948.9
2023-04-29T10:40:06.525Z,948.9
2023-04-29T10:41:08.368Z,948.9
2023-04-29T10:42:10.220Z,948.9
2023-04-29T10:43:12.067Z,948.9
2023-04-29T10:44:13.928Z,948.9
2023-04-29T10:45:15.637Z,948.9
2023-04-29T10:46:17.807Z,948.9
2023-04-29T10:47:19.791Z,948.9
2023-04-29T10:48:21.625Z,948.9
2023-04-29T10:49:26.064Z,948.9
2023-04-29T10:50:27.983Z,948.9
2023-04-29T10:51:29.740Z,948.9
2023-04-29T10:52:31.501Z,948.9
2023-04-29T10:53:33.337Z,948.8
2023-04-29T10:54:35.280Z,948.8
2023-04-29T10:55:37.142Z,948.9
2023-04-29T10:56:38.990Z,948.8
2023-04-29T10:57:40.730Z,948.8
2023-04-29T10:58:42.686Z,948.8
2023-04-29T10:59:44.531Z,948.8
2023-04-29T11:00:46.414Z,948.8
2023-04-29T11:01:48.828Z,948.8
2023-04-29T11:02:51.058Z,948.8
2023-04-29T11:03:53.447Z,948.8
2023-04-29T11:04:56.501Z,948.8
2023-04-29T11:05:58.808Z,948.7
2023-04-29T11:07:00.563Z,948.8
2023-04-29T11:08:02.416Z,948.7
2023-04-29T11:09:04.369Z,948.8
2023-04-29T11:10:06.218Z,948.7
2023-04-29T11:11:08.063Z,948.7
2023-04-29T11:12:10.027Z,948.8
2023-04-29T11:13:11.762Z,948.8
2023-04-29T11:14:13.734Z,948.8
2023-04-29T11:15:15.577Z,948.8
2023-04-29T11:16:17.677Z,948.7
2023-04-29T11:17:19.675Z,948.8
2023-04-29T11:18:21.538Z,948.8
2023-04-29T11:19:23.369Z,948.8
2023-04-29T11:20:25.353Z,948.7
2023-04-29T11:21:27.076Z,948.8
2023-04-29T11:22:29.023Z,948.8
2023-04-29T11:23:30.981Z,948.7
2023-04-29T11:24:32.934Z,948.7
2023-04-29T11:25:34.783Z,948.7
2023-04-29T11:26:37.224Z,948.7
2023-04-29T11:27:39.296Z,948.8
2023-04-29T11:28:41.188Z,948.7
2023-04-29T11:29:42.997Z,948.7
2023-04-29T11:30:47.524Z,948.7
2023-04-29T11:31:49.538Z,948.7
2023-04-29T11:32:51.864Z,948.7
2023-04-29T11:33:54.007Z,948.7
2023-04-29T11:34:56.886Z,948.7
2023-04-29T11:35:58.849Z,948.7
2023-04-29T11:37:00.662Z,948.7
2023-04-29T11:38:02.402Z,948.7
2023-04-29T11:39:04.289Z,948.7
2023-04-29T11:40:06.220Z,948.7
2023-04-29T11:41:08.053Z,948.6
2023-04-29T11:42:10.011Z,948.7
2023-04-29T11:43:11.762Z,948.7
2023-04-29T11:44:13.607Z,948.6
2023-04-29T11:45:15.560Z,948.6
2023-04-29T11:46:17.650Z,948.6
2023-04-29T11:47:19.696Z,948.7
2023-04-29T11:48:24.228Z,948.6
2023-04-29T11:49:25.934Z,948.7
2023-04-29T11:50:27.885Z,948.7
2023-04-29T11:51:32.301Z,948.7
2023-04-29T11:52:34.145Z,948.7
2023-04-29T11:53:36.017Z,948.7
2023-04-29T11:54:37.964Z,948.7
2023-04-29T11:55:39.898Z,948.6
2023-04-29T11:56:41.659Z,948.7
2023-04-29T11:57:43.505Z,948.7
2023-04-29T11:58:45.450Z,948.7
2023-04-29T11:59:47.375Z,948.6
2023-04-29T12:00:49.253Z,948.6
2023-04-29T12:01:51.000Z,948.7
2023-04-29T12:02:53.418Z,948.7
2023-04-29T12:03:56.376Z,948.6
2023-04-29T12:05:00.579Z,948.6
2023-04-29T12:06:03.525Z,948.6
2023-04-29T12:07:05.660Z,948.6
2023-04-29T12:08:07.521Z,948.6
2023-04-29T12:09:09.378Z,948.6
2023-04-29T12:10:12.279Z,948.6
2023-04-29T12:11:14.472Z,948.6
2023-04-29T12:12:16.481Z,948.6
2023-04-29T12:13:18.326Z,948.6
2023-04-29T12:14:20.170Z,948.6
2023-04-29T12:15:22.007Z,948.6
2023-04-29T12:16:24.035Z,948.6
2023-04-29T12:17:26.334Z,948.6
2023-04-29T12:18:28.272Z,948.6
2023-04-29T12:19:30.118Z,948.6
2023-04-29T12:20:31.986Z,948.6
2023-04-29T12:21:33.923Z,948.6
2023-04-29T12:22:35.811Z,948.6
2023-04-29T12:23:37.539Z,948.6
2023-04-29T12:24:39.268Z,948.6
2023-04-29T12:25:41.122Z,948.6
2023-04-29T12:26:42.982Z,948.6
2023-04-29T12:27:44.817Z,948.6
2023-04-29T12:28:46.776Z,948.5
2023-04-29T12:29:48.838Z,948.6
2023-04-29T12:30:50.781Z,948.5
2023-04-29T12:31:53.236Z,948.5
2023-04-29T12:32:55.622Z,948.5
2023-04-29T12:33:57.467Z,948.5
2023-04-29T12:34:59.313Z,948.5
2023-04-29T12:36:01.051Z,948.5
2023-04-29T12:37:02.811Z,948.5
2023-04-29T12:38:04.788Z,948.5
2023-04-29T12:39:06.522Z,948.5
2023-04-29T12:40:08.286Z,948.5
2023-04-29T12:41:10.086Z,948.5
2023-04-29T12:42:11.961Z,948.5
2023-04-29T12:43:13.906Z,948.5
2023-04-29T12:44:15.774Z,948.5
2023-04-29T12:45:17.573Z,948.4
2023-04-29T12:46:19.587Z,948.4
2023-04-29T12:47:24.284Z,948.4
2023-04-29T12:48:33.960Z,948.4
2023-04-29T12:49:35.955Z,948.4
2023-04-29T12:50:37.826Z,948.4
2023-04-29T12:51:39.977Z,948.4
2023-04-29T12:52:41.821Z,948.4
2023-04-29T12:53:43.698Z,948.4
2023-04-29T12:54:45.530Z,948.4
2023-04-29T12:55:47.372Z,948.4
2023-04-29T12:56:50.229Z,948.4
2023-04-29T12:57:52.038Z,948.3
2023-04-29T12:58:54.053Z,948.3
2023-04-29T12:59:56.400Z,948.4
2023-04-29T13:00:59.270Z,948.3
2023-04-29T13:02:02.310Z,948.3
2023-04-29T13:03:04.947Z,948.3
2023-04-29T13:04:07.939Z,948.3
2023-04-29T13:05:09.985Z,948.3
2023-04-29T13:06:11.842Z,948.3
2023-04-29T13:07:13.864Z,948.3
2023-04-29T13:08:19.606Z,948.3
2023-04-29T13:09:21.374Z,948.3
2023-04-29T13:10:23.208Z,948.3
2023-04-29T13:11:25.153Z,948.3
2023-04-29T13:12:32.022Z,948.3
2023-04-29T13:13:34.019Z,948.3
2023-04-29T13:14:35.814Z,948.3
2023-04-29T13:15:37.714Z,948.3
2023-04-29T13:16:39.674Z,948.3
2023-04-29T13:17:42.604Z,948.3
2023-04-29T13:19:30.364Z,948.3
2023-04-29T13:20:53.686Z,948.3
2023-04-29T13:21:58.196Z,948.2
2023-04-29T13:23:02.806Z,948.2
2023-04-29T13:24:04.863Z,948.2
2023-04-29T13:25:06.807Z,948.2